createdAt,value
2022-07-28T00:01:58.230Z,27.32
2022-07-28T00:04:28.218Z,27.39
2022-07-28T00:06:57.782Z,27.64
2022-07-28T00:09:27.221Z,27.76
2022-07-28T00:11:56.633Z,27.74
2022-07-28T00:14:26.379Z,27.50
2022-07-28T00:16:56.209Z,27.72
2022-07-28T00:19:25.514Z,27.68
2022-07-28T00:21:54.812Z,27.70
2022-07-28T00:24:25.340Z,27.50
2022-07-28T00:26:55.162Z,27.63
2022-07-28T00:29:42.542Z,27.83
2022-07-28T00:32:18.138Z,28.15
2022-07-28T00:34:48.074Z,28.27
2022-07-28T00:37:17.637Z,28.55
2022-07-28T00:39:46.966Z,28.65
2022-07-28T00:42:20.667Z,28.89
2022-07-28T00:44:50.501Z,29.18
2022-07-28T00:47:21.496Z,29.19
2022-07-28T00:49:51.511Z,29.32
2022-07-28T00:52:21.645Z,29.32
2022-07-28T00:54:51.008Z,29.82
2022-07-28T00:57:22.282Z,30.28
2022-07-28T00:59:51.459Z,30.55
2022-07-28T01:02:20.815Z,30.96
2022-07-28T01:04:50.574Z,30.88
2022-07-28T01:07:54.733Z,31.18
2022-07-28T01:11:28.262Z,31.59
2022-07-28T01:14:51.367Z,31.85
2022-07-28T01:17:45.839Z,32.35
2022-07-28T01:20:27.016Z,32.58
2022-07-28T01:23:43.513Z,32.85
2022-07-28T01:27:04.152Z,33.28
2022-07-28T01:30:04.144Z,33.34
2022-07-28T01:32:47.666Z,33.60
2022-07-28T01:35:27.673Z,33.85
2022-07-28T01:38:04.811Z,34.05
2022-07-28T01:40:38.009Z,34.32
2022-07-28T01:43:13.199Z,34.24
2022-07-28T01:45:45.060Z,34.33
2022-07-28T01:48:19.513Z,34.42
2022-07-28T01:50:53.473Z,34.40
2022-07-28T01:53:25.113Z,34.43
2022-07-28T01:55:56.091Z,34.60
2022-07-28T01:58:28.192Z,34.84
2022-07-28T02:01:00.003Z,35.14
2022-07-28T02:03:31.643Z,35.39
2022-07-28T02:06:04.548Z,35.36
2022-07-28T02:08:36.303Z,35.70
2022-07-28T02:11:24.721Z,35.93
2022-07-28T02:13:56.357Z,36.20
2022-07-28T02:16:28.966Z,36.47
2022-07-28T02:19:01.389Z,36.74
2022-07-28T02:21:36.359Z,37.13
2022-07-28T02:24:09.063Z,37.43
2022-07-28T02:26:45.549Z,37.77
2022-07-28T02:29:48.151Z,37.95
2022-07-28T02:32:27.844Z,38.19
2022-07-28T02:35:31.299Z,38.56
2022-07-28T02:38:12.386Z,39.13
2022-07-28T02:40:45.611Z,39.39
2022-07-28T02:43:21.561Z,39.55
2022-07-28T02:45:57.231Z,39.70
2022-07-28T02:48:34.103Z,40.03
2022-07-28T02:51:04.968Z,40.29
2022-07-28T02:53:36.143Z,40.70
2022-07-28T02:56:06.750Z,40.64
2022-07-28T02:58:37.689Z,40.82
2022-07-28T03:01:08.085Z,40.89
2022-07-28T03:03:42.485Z,41.19
2022-07-28T03:06:13.896Z,41.21
2022-07-28T03:08:43.425Z,41.51
2022-07-28T03:11:15.071Z,41.51
2022-07-28T03:13:44.599Z,41.59
2022-07-28T03:16:15.386Z,41.86
2022-07-28T03:18:44.610Z,42.32
2022-07-28T03:21:14.065Z,42.56
2022-07-28T03:23:46.941Z,42.38
2022-07-28T03:26:44.743Z,42.46
2022-07-28T03:29:14.753Z,42.80
2022-07-28T03:31:48.316Z,42.91
2022-07-28T03:34:18.091Z,42.99
2022-07-28T03:36:55.851Z,43.18
2022-07-28T03:39:32.585Z,43.34
2022-07-28T03:42:03.812Z,43.45
2022-07-28T03:44:34.340Z,43.59
2022-07-28T03:47:03.638Z,43.73
2022-07-28T03:49:33.315Z,43.94
2022-07-28T03:52:03.038Z,44.13
2022-07-28T03:54:32.445Z,44.19
2022-07-28T03:57:02.849Z,44.23
2022-07-28T03:59:32.066Z,44.38
2022-07-28T04:02:01.679Z,44.61
2022-07-28T04:04:31.275Z,44.68
2022-07-28T04:07:00.596Z,44.76
2022-07-28T04:09:30.056Z,45.07
2022-07-28T04:11:59.440Z,45.22
2022-07-28T04:14:28.790Z,45.41
2022-07-28T04:16:58.363Z,45.43
2022-07-28T04:19:28.210Z,45.54
2022-07-28T04:21:57.404Z,45.77
2022-07-28T04:24:27.283Z,45.94
2022-07-28T04:26:57.209Z,46.05
2022-07-28T04:29:27.213Z,46.22
2022-07-28T04:31:57.504Z,46.44
2022-07-28T04:34:26.835Z,46.56
2022-07-28T04:36:56.759Z,46.64
2022-07-28T04:39:26.472Z,46.79
2022-07-28T04:41:55.954Z,46.90
2022-07-28T04:44:25.172Z,46.92
2022-07-28T04:46:54.511Z,47.03
2022-07-28T04:49:23.970Z,47.06
2022-07-28T04:51:53.565Z,47.27
2022-07-28T04:54:27.814Z,47.43
2022-07-28T04:56:59.468Z,47.59
2022-07-28T04:59:32.431Z,47.70
2022-07-28T05:02:03.192Z,47.95
2022-07-28T05:04:33.000Z,47.96
2022-07-28T05:07:11.769Z,48.12
2022-07-28T05:09:42.207Z,48.39
2022-07-28T05:12:12.125Z,48.65
2022-07-28T05:14:41.521Z,48.59
2022-07-28T05:17:11.008Z,48.83
2022-07-28T05:19:40.377Z,48.88
2022-07-28T05:22:09.567Z,49.01
2022-07-28T05:24:38.634Z,49.24
2022-07-28T05:27:07.989Z,49.38
2022-07-28T05:29:47.657Z,49.59
2022-07-28T05:32:18.023Z,49.90
2022-07-28T05:34:47.729Z,49.99
2022-07-28T05:37:17.075Z,50.10
2022-07-28T05:39:46.552Z,50.42
2022-07-28T05:42:16.262Z,50.48
2022-07-28T05:44:45.555Z,50.53
2022-07-28T05:47:14.740Z,50.69
2022-07-28T05:49:43.949Z,50.79
2022-07-28T05:52:13.201Z,51.00
2022-07-28T05:54:42.567Z,51.27
2022-07-28T05:57:15.314Z,51.21
2022-07-28T05:59:45.150Z,51.52
2022-07-28T06:02:16.516Z,51.71
2022-07-28T06:04:46.131Z,51.89
2022-07-28T06:07:15.773Z,52.00
2022-07-28T06:09:45.323Z,52.35
2022-07-28T06:12:14.843Z,52.56
2022-07-28T06:14:44.214Z,52.74
2022-07-28T06:17:15.980Z,53.14
2022-07-28T06:19:46.004Z,53.22
2022-07-28T06:22:16.770Z,53.45
2022-07-28T06:24:46.451Z,53.81
2022-07-28T06:27:15.998Z,53.72
2022-07-28T06:29:45.467Z,53.84
2022-07-28T06:32:14.753Z,53.90
2022-07-28T06:34:44.248Z,54.03
2022-07-28T06:37:13.677Z,54.15
2022-07-28T06:39:42.864Z,54.49
2022-07-28T06:42:12.431Z,54.66
2022-07-28T06:44:57.987Z,54.93
2022-07-28T06:47:28.736Z,54.97
2022-07-28T06:49:58.281Z,55.03
2022-07-28T06:52:28.761Z,55.21
2022-07-28T06:54:59.013Z,55.34
2022-07-28T06:57:33.648Z,55.48
2022-07-28T07:00:06.153Z,55.56
2022-07-28T07:02:41.423Z,55.87
2022-07-28T07:05:12.939Z,55.99
2022-07-28T07:07:43.607Z,56.10
2022-07-28T07:10:13.922Z,56.31
2022-07-28T07:12:43.219Z,56.43
2022-07-28T07:15:14.198Z,56.50
2022-07-28T07:17:44.206Z,56.59
2022-07-28T07:20:16.537Z,56.42
2022-07-28T07:22:50.148Z,56.29
2022-07-28T07:25:21.350Z,56.39
2022-07-28T07:27:50.949Z,56.60
2022-07-28T07:30:20.563Z,56.67
2022-07-28T07:32:49.863Z,56.66
2022-07-28T07:35:20.379Z,56.60
2022-07-28T07:37:49.563Z,56.75
2022-07-28T07:40:19.074Z,56.84
2022-07-28T07:42:48.508Z,56.87
2022-07-28T07:45:18.211Z,57.11
2022-07-28T07:47:47.738Z,57.18
2022-07-28T07:50:21.970Z,57.18
2022-07-28T07:52:51.556Z,57.24
2022-07-28T07:55:21.036Z,57.40
2022-07-28T07:57:50.208Z,57.36
2022-07-28T08:00:28.635Z,57.45
2022-07-28T08:03:02.305Z,57.58
2022-07-28T08:05:35.792Z,57.62
2022-07-28T08:08:06.990Z,57.58
2022-07-28T08:10:38.583Z,57.54
2022-07-28T08:13:09.421Z,57.60
2022-07-28T08:15:38.654Z,57.74
2022-07-28T08:18:07.925Z,57.85
2022-07-28T08:20:37.164Z,57.85
2022-07-28T08:23:07.793Z,57.92
2022-07-28T08:25:40.536Z,57.96
2022-07-28T08:28:09.947Z,57.92
2022-07-28T08:30:39.134Z,58.07
2022-07-28T08:33:08.704Z,58.20
2022-07-28T08:35:38.139Z,58.36
2022-07-28T08:38:08.390Z,58.45
2022-07-28T08:40:40.788Z,58.71
2022-07-28T08:43:31.285Z,58.85
2022-07-28T08:46:02.803Z,59.08
2022-07-28T08:48:41.114Z,59.18
2022-07-28T08:51:13.519Z,59.30
2022-07-28T08:53:44.414Z,59.43
2022-07-28T08:56:18.289Z,59.59
2022-07-28T08:58:48.184Z,59.69
2022-07-28T09:01:18.833Z,59.77
2022-07-28T09:03:48.761Z,59.92
2022-07-28T09:06:18.970Z,60.18
2022-07-28T09:08:48.557Z,60.21
2022-07-28T09:11:17.965Z,60.33
2022-07-28T09:13:50.883Z,60.53
2022-07-28T09:16:25.184Z,60.76
2022-07-28T09:18:54.730Z,60.91
2022-07-28T09:21:24.381Z,60.94
2022-07-28T09:23:54.546Z,60.97
2022-07-28T09:26:24.126Z,61.11
2022-07-28T09:28:57.323Z,61.53
2022-07-28T09:31:30.159Z,61.78
2022-07-28T09:34:03.513Z,62.01
2022-07-28T09:36:41.970Z,62.13
2022-07-28T09:39:11.786Z,62.23
2022-07-28T09:41:57.131Z,62.38
2022-07-28T09:44:28.941Z,62.53
2022-07-28T09:46:59.172Z,62.50
2022-07-28T09:49:45.610Z,62.66
2022-07-28T09:52:16.120Z,62.86
2022-07-28T09:55:03.775Z,62.99
2022-07-28T09:57:36.271Z,63.06
2022-07-28T10:00:13.603Z,63.21
2022-07-28T10:02:51.789Z,63.25
2022-07-28T10:05:21.348Z,63.33
2022-07-28T10:07:51.715Z,63.49
2022-07-28T10:10:23.961Z,63.69
2022-07-28T10:13:05.515Z,63.92
2022-07-28T10:15:53.395Z,64.26
2022-07-28T10:18:23.402Z,64.43
2022-07-28T10:20:52.669Z,64.53
2022-07-28T10:23:26.028Z,64.59
2022-07-28T10:25:57.994Z,64.60
2022-07-28T10:28:28.073Z,64.57
2022-07-28T10:31:04.262Z,64.69
2022-07-28T10:33:34.776Z,64.78
2022-07-28T10:36:05.183Z,64.80
2022-07-28T10:38:39.494Z,64.84
2022-07-28T10:41:12.541Z,64.99
2022-07-28T10:43:45.690Z,65.02
2022-07-28T10:46:17.500Z,65.03
2022-07-28T10:48:47.244Z,65.21
2022-07-28T10:51:17.055Z,65.43
2022-07-28T10:54:03.304Z,65.48
2022-07-28T10:56:59.318Z,65.50
2022-07-28T10:59:58.184Z,65.50
2022-07-28T11:02:56.121Z,65.61
2022-07-28T11:05:54.458Z,65.76
2022-07-28T11:08:23.586Z,65.87
2022-07-28T11:11:07.526Z,65.65
2022-07-28T11:13:41.183Z,65.55
2022-07-28T11:16:17.377Z,65.36
2022-07-28T11:19:40.093Z,65.31
2022-07-28T11:22:23.037Z,65.25
2022-07-28T11:25:20.441Z,65.34
2022-07-28T11:27:55.341Z,65.40
2022-07-28T11:30:33.226Z,65.52
2022-07-28T11:33:04.375Z,65.65
2022-07-28T11:35:40.763Z,65.65
2022-07-28T11:38:16.484Z,65.78
2022-07-28T11:40:49.308Z,65.96
2022-07-28T11:43:37.597Z,66.04
2022-07-28T11:46:10.195Z,66.19
2022-07-28T11:48:48.653Z,66.38
2022-07-28T11:51:18.002Z,66.45
2022-07-28T11:53:55.379Z,66.23
2022-07-28T11:56:30.852Z,66.06
2022-07-28T11:59:08.922Z,65.83
2022-07-28T12:01:38.828Z,65.72
2022-07-28T12:04:16.955Z,65.73
2022-07-28T12:06:49.396Z,65.84
2022-07-28T12:09:26.258Z,65.93
2022-07-28T12:11:57.881Z,65.97
2022-07-28T12:14:32.311Z,66.01
2022-07-28T12:17:04.758Z,66.02
2022-07-28T12:19:35.167Z,66.12
2022-07-28T12:22:15.831Z,66.21
2022-07-28T12:24:46.184Z,66.26
2022-07-28T12:27:16.517Z,66.31
2022-07-28T12:30:00.905Z,66.12
2022-07-28T12:32:37.391Z,66.07
2022-07-28T12:35:07.815Z,66.08
2022-07-28T12:37:37.501Z,66.00
2022-07-28T12:40:10.033Z,65.79
2022-07-28T12:42:39.487Z,65.83
2022-07-28T12:45:11.269Z,65.91
2022-07-28T12:47:41.454Z,65.88
2022-07-28T12:50:21.042Z,65.97
2022-07-28T12:53:09.325Z,65.93
2022-07-28T12:55:41.080Z,65.97
2022-07-28T12:58:26.498Z,65.94
2022-07-28T13:00:57.538Z,65.92
2022-07-28T13:03:30.099Z,65.90
2022-07-28T13:06:10.551Z,65.84
2022-07-28T13:08:48.690Z,65.73
2022-07-28T13:11:42.495Z,65.51
2022-07-28T13:14:09.193Z,65.18
2022-07-28T13:16:39.215Z,64.90
2022-07-28T13:19:11.607Z,64.68
2022-07-28T13:21:58.055Z,64.51
2022-07-28T13:24:29.909Z,64.27
2022-07-28T13:27:00.941Z,64.10
2022-07-28T13:29:30.661Z,63.89
2022-07-28T13:32:00.068Z,63.77
2022-07-28T13:34:29.650Z,63.81
2022-07-28T13:36:59.060Z,63.61
2022-07-28T13:39:28.791Z,63.60
2022-07-28T13:41:59.404Z,63.39
2022-07-28T13:44:30.600Z,63.39
2022-07-28T13:47:01.670Z,63.24
2022-07-28T13:49:34.959Z,63.12
2022-07-28T13:52:05.014Z,63.07
2022-07-28T13:54:34.306Z,62.88
2022-07-28T13:57:04.633Z,62.78
2022-07-28T13:59:37.634Z,62.77
2022-07-28T14:02:14.841Z,62.75
2022-07-28T14:04:50.199Z,62.55
2022-07-28T14:07:21.593Z,62.55
2022-07-28T14:09:52.621Z,62.38
2022-07-28T14:12:23.760Z,62.42
2022-07-28T14:14:55.084Z,62.35
2022-07-28T14:20:17.948Z,62.17
2022-07-28T14:22:47.572Z,62.11
2022-07-28T14:25:20.588Z,62.08
2022-07-28T14:27:52.247Z,61.86
2022-07-28T14:30:23.646Z,61.75
2022-07-28T14:32:53.062Z,61.54
2022-07-28T14:35:23.449Z,61.39
2022-07-28T14:40:43.930Z,60.80
2022-07-28T14:43:13.807Z,60.60
2022-07-28T14:46:00.517Z,60.33
2022-07-28T14:48:33.830Z,60.01
2022-07-28T14:51:03.160Z,59.81
2022-07-28T14:53:33.087Z,59.39
2022-07-28T14:56:05.385Z,59.05
2022-07-28T14:58:34.426Z,58.77
2022-07-28T15:01:03.698Z,58.85
2022-07-28T15:03:36.555Z,58.79
2022-07-28T15:06:06.619Z,58.60
2022-07-28T15:08:36.014Z,58.29
2022-07-28T15:11:05.365Z,58.07
2022-07-28T15:13:34.814Z,58.22
2022-07-28T15:16:04.306Z,58.50
2022-07-28T15:18:33.829Z,58.32
2022-07-28T15:21:03.951Z,57.45
2022-07-28T15:23:33.318Z,56.92
2022-07-28T15:26:03.036Z,56.99
2022-07-28T15:28:32.696Z,56.88
2022-07-28T15:31:02.343Z,57.02
2022-07-28T15:33:32.463Z,57.16
2022-07-28T15:36:02.795Z,57.07
2022-07-28T15:38:32.418Z,56.82
2022-07-28T15:41:04.417Z,57.08
2022-07-28T15:43:34.310Z,57.61
2022-07-28T15:46:12.159Z,57.28
2022-07-28T15:48:44.925Z,56.54
2022-07-28T15:51:14.516Z,56.85
2022-07-28T15:53:47.116Z,57.16
2022-07-28T15:56:16.398Z,56.34
2022-07-28T15:58:46.080Z,55.92
2022-07-28T16:01:15.874Z,55.31
2022-07-28T16:03:46.632Z,54.99
2022-07-28T16:06:15.807Z,54.62
2022-07-28T16:08:45.151Z,54.50
2022-07-28T16:11:14.874Z,54.20
2022-07-28T16:13:44.939Z,54.20
2022-07-28T16:16:16.292Z,53.94
2022-07-28T16:18:46.521Z,53.68
2022-07-28T16:21:18.334Z,53.77
2022-07-28T16:23:47.873Z,53.31
2022-07-28T16:26:17.235Z,53.11
2022-07-28T16:28:47.197Z,52.76
2022-07-28T16:31:17.849Z,52.42
2022-07-28T16:33:47.448Z,52.42
2022-07-28T16:36:16.623Z,52.77
2022-07-28T16:38:46.688Z,52.37
2022-07-28T16:41:16.375Z,51.98
2022-07-28T16:43:46.656Z,51.82
2022-07-28T16:46:16.202Z,51.62
2022-07-28T16:48:45.774Z,51.33
2022-07-28T16:51:15.122Z,51.37
2022-07-28T16:53:44.497Z,51.89
2022-07-28T16:56:18.482Z,51.26
2022-07-28T16:58:49.105Z,50.91
2022-07-28T17:01:18.671Z,49.93
2022-07-28T17:03:48.995Z,49.73
2022-07-28T17:06:18.766Z,50.13
2022-07-28T17:08:48.136Z,50.32
2022-07-28T17:11:17.494Z,50.25
2022-07-28T17:13:47.135Z,49.56
2022-07-28T17:16:16.675Z,48.74
2022-07-28T17:18:46.184Z,48.32
2022-07-28T17:21:15.853Z,48.02
2022-07-28T17:23:45.648Z,47.30
2022-07-28T17:27:32.553Z,46.94
2022-07-28T17:29:04.759Z,47.16
2022-07-28T17:31:34.819Z,47.20
2022-07-28T17:34:04.233Z,47.20
2022-07-28T17:36:36.349Z,47.56
2022-07-28T17:39:10.635Z,47.18
2022-07-28T17:41:42.277Z,47.05
2022-07-28T17:44:11.843Z,47.54
2022-07-28T17:46:41.605Z,46.76
2022-07-28T17:49:12.061Z,46.25
2022-07-28T17:51:42.812Z,45.42
2022-07-28T17:54:15.398Z,45.57
2022-07-28T17:56:45.392Z,44.15
2022-07-28T17:59:15.469Z,42.90
2022-07-28T18:01:45.622Z,41.58
2022-07-28T18:04:15.738Z,40.40
2022-07-28T18:06:47.017Z,38.26
2022-07-28T18:09:16.799Z,38.53
2022-07-28T18:11:56.939Z,35.96
2022-07-28T18:14:30.638Z,35.02
2022-07-28T18:17:00.988Z,34.96
2022-07-28T18:19:31.189Z,35.12
2022-07-28T18:22:00.331Z,33.64
2022-07-28T18:24:30.648Z,32.69
2022-07-28T18:27:01.104Z,32.01
2022-07-28T18:29:38.154Z,32.65
2022-07-28T18:32:10.209Z,32.76
2022-07-28T18:34:41.430Z,32.53
2022-07-28T18:37:11.033Z,31.58
2022-07-28T18:39:41.343Z,30.76
2022-07-28T18:42:11.832Z,30.07
2022-07-28T18:44:41.481Z,30.54
2022-07-28T18:47:11.011Z,29.91
2022-07-28T18:49:40.546Z,29.96
2022-07-28T18:52:09.643Z,30.56
2022-07-28T18:54:38.800Z,30.19
2022-07-28T18:57:08.719Z,29.29
2022-07-28T18:59:41.888Z,28.49
2022-07-28T19:02:15.934Z,28.74
2022-07-28T19:04:47.353Z,29.22
2022-07-28T19:07:17.998Z,28.93
2022-07-28T19:09:47.131Z,28.66
2022-07-28T19:12:16.217Z,28.09
2022-07-28T19:14:45.348Z,27.47
2022-07-28T19:17:14.510Z,27.14
2022-07-28T19:19:44.484Z,26.97
2022-07-28T19:22:14.068Z,26.92
2022-07-28T19:24:43.251Z,27.00
2022-07-28T19:27:12.850Z,26.94
2022-07-28T19:29:42.149Z,26.70
2022-07-28T19:32:11.652Z,26.39
2022-07-28T19:34:41.220Z,26.26
2022-07-28T19:37:15.811Z,26.25
2022-07-28T19:39:46.339Z,25.78
2022-07-28T19:42:16.036Z,25.80
2022-07-28T19:44:47.033Z,25.23
2022-07-28T19:47:16.794Z,25.23
2022-07-28T19:49:46.980Z,25.49
2022-07-28T19:52:16.102Z,25.14
2022-07-28T19:54:51.120Z,25.04
2022-07-28T19:57:20.881Z,24.52
2022-07-28T19:59:50.254Z,24.04
2022-07-28T20:02:19.531Z,24.23
2022-07-28T20:04:49.602Z,23.76
2022-07-28T20:07:19.240Z,24.24
2022-07-28T20:09:48.678Z,23.46
2022-07-28T20:12:20.442Z,23.77
2022-07-28T20:14:49.799Z,23.40
2022-07-28T20:17:36.985Z,23.44
2022-07-28T20:20:13.447Z,23.06
2022-07-28T20:22:43.610Z,23.75
2022-07-28T20:25:14.642Z,23.54
2022-07-28T20:27:44.900Z,23.07
2022-07-28T20:30:15.919Z,23.13
2022-07-28T20:32:45.615Z,22.86
2022-07-28T20:35:15.317Z,23.52
2022-07-28T20:37:44.717Z,22.82
2022-07-28T20:40:14.416Z,22.26
2022-07-28T20:42:48.708Z,22.65
2022-07-28T20:45:22.432Z,22.83
2022-07-28T20:47:51.650Z,21.79
2022-07-28T20:50:22.312Z,22.18
2022-07-28T20:52:51.655Z,21.96
2022-07-28T20:55:21.785Z,22.04
2022-07-28T20:57:53.828Z,23.65
2022-07-28T21:00:25.267Z,22.79
2022-07-28T21:02:54.923Z,22.43
2022-07-28T21:05:35.040Z,22.55
2022-07-28T21:08:09.557Z,22.23
2022-07-28T21:10:46.426Z,21.81
2022-07-28T21:13:16.047Z,22.13
2022-07-28T21:15:45.869Z,21.52
2022-07-28T21:18:15.296Z,21.54
2022-07-28T21:20:45.030Z,21.84
2022-07-28T21:23:14.907Z,21.81
2022-07-28T21:25:45.161Z,22.05
2022-07-28T21:28:33.800Z,21.42
2022-07-28T21:31:06.188Z,21.29
2022-07-28T21:33:35.720Z,21.27
2022-07-28T21:36:05.812Z,21.53
2022-07-28T21:38:35.193Z,21.69
2022-07-28T21:41:04.937Z,21.43
2022-07-28T21:43:34.347Z,21.67
2022-07-28T21:46:04.110Z,21.46
2022-07-28T21:48:34.131Z,21.38
2022-07-28T21:51:03.309Z,21.49
2022-07-28T21:53:48.375Z,21.12
2022-07-28T21:56:18.282Z,21.15
2022-07-28T21:58:48.699Z,21.33
2022-07-28T22:01:18.387Z,21.18
2022-07-28T22:03:47.808Z,21.14
2022-07-28T22:06:17.466Z,20.87
2022-07-28T22:08:46.999Z,20.87
2022-07-28T22:11:16.556Z,21.12
2022-07-28T22:13:45.918Z,21.41
2022-07-28T22:16:15.398Z,21.71
2022-07-28T22:18:44.588Z,20.90
2022-07-28T22:21:14.362Z,21.02
2022-07-28T22:23:43.655Z,20.93
2022-07-28T22:26:12.810Z,21.11
2022-07-28T22:28:41.948Z,20.79
2022-07-28T22:31:11.322Z,20.57
2022-07-28T22:33:41.899Z,20.79
2022-07-28T22:36:11.359Z,20.62
2022-07-28T22:38:40.822Z,21.03
2022-07-28T22:41:10.759Z,20.61
2022-07-28T22:43:40.187Z,20.44
2022-07-28T22:46:12.319Z,20.54
2022-07-28T22:48:42.598Z,20.37
2022-07-28T22:51:14.643Z,20.28
2022-07-28T22:53:44.832Z,20.59
2022-07-28T22:59:00.043Z,20.67
2022-07-28T23:01:32.036Z,20.86
2022-07-28T23:04:01.631Z,20.46
2022-07-28T23:06:31.591Z,20.41
2022-07-28T23:09:01.088Z,20.23
2022-07-28T23:11:30.509Z,20.66
2022-07-28T23:13:59.901Z,20.75
2022-07-28T23:16:29.301Z,20.52
2022-07-28T23:18:58.523Z,20.48
2022-07-28T23:21:27.919Z,20.35
2022-07-28T23:23:57.268Z,20.33
2022-07-28T23:26:30.031Z,20.39
2022-07-28T23:28:59.324Z,20.52
2022-07-28T23:31:28.643Z,20.44
2022-07-28T23:33:58.105Z,20.35
2022-07-28T23:36:28.397Z,20.24
2022-07-28T23:39:00.262Z,20.15
2022-07-28T23:41:30.893Z,20.13
2022-07-28T23:44:00.475Z,20.19
2022-07-28T23:46:29.868Z,20.39
2022-07-28T23:48:59.118Z,20.27
2022-07-28T23:51:41.859Z,20.55
2022-07-28T23:54:18.222Z,20.60
2022-07-28T23:56:47.957Z,20.64
2022-07-28T23:59:17.532Z,20.74
